sensor_id;sensor_type;location;lat;lon;timestamp;P1;durP1;ratioP1;P2;durP2;ratioP2
26181;SDS011;13927;51.534;11.866;2023-01-23T00:01:06;28.05;;;16.92;;
26181;SDS011;13927;51.534;11.866;2023-01-23T00:03:51;27.60;;;16.70;;
26181;SDS011;13927;51.534;11.866;2023-01-23T00:06:19;29.40;;;17.67;;
26181;SDS011;13927;51.534;11.866;2023-01-23T00:08:45;26.45;;;16.90;;
26181;SDS011;13927;51.534;11.866;2023-01-23T00:11:13;28.52;;;16.83;;
26181;SDS011;13927;51.534;11.866;2023-01-23T00:13:41;26.90;;;16.17;;
26181;SDS011;13927;51.534;11.866;2023-01-23T00:16:09;29.98;;;17.10;;
26181;SDS011;13927;51.534;11.866;2023-01-23T00:18:38;28.83;;;16.98;;
26181;SDS011;13927;51.534;11.866;2023-01-23T00:21:05;30.20;;;17.08;;
26181;SDS011;13927;51.534;11.866;2023-01-23T00:23:35;27.85;;;18.00;;
26181;SDS011;13927;51.534;11.866;2023-01-23T00:26:11;33.40;;;18.95;;
26181;SDS011;13927;51.534;11.866;2023-01-23T00:28:41;27.23;;;15.75;;
26181;SDS011;13927;51.534;11.866;2023-01-23T00:31:09;29.92;;;17.75;;
26181;SDS011;13927;51.534;11.866;2023-01-23T00:33:47;25.70;;;15.75;;
26181;SDS011;13927;51.534;11.866;2023-01-23T00:36:22;30.00;;;17.42;;
26181;SDS011;13927;51.534;11.866;2023-01-23T00:38:56;29.77;;;17.30;;
26181;SDS011;13927;51.534;11.866;2023-01-23T00:41:22;31.30;;;17.67;;
26181;SDS011;13927;51.534;11.866;2023-01-23T00:43:48;28.30;;;17.75;;
26181;SDS011;13927;51.534;11.866;2023-01-23T00:46:18;29.83;;;18.92;;
26181;SDS011;13927;51.534;11.866;2023-01-23T00:48:45;29.10;;;18.17;;
26181;SDS011;13927;51.534;11.866;2023-01-23T00:51:10;30.55;;;18.88;;
26181;SDS011;13927;51.534;11.866;2023-01-23T00:53:36;28.02;;;16.83;;
26181;SDS011;13927;51.534;11.866;2023-01-23T00:56:02;30.33;;;18.58;;
26181;SDS011;13927;51.534;11.866;2023-01-23T00:58:31;31.95;;;16.65;;
26181;SDS011;13927;51.534;11.866;2023-01-23T01:00:57;31.15;;;18.05;;
26181;SDS011;13927;51.534;11.866;2023-01-23T01:03:23;27.95;;;17.23;;
26181;SDS011;13927;51.534;11.866;2023-01-23T01:05:51;30.02;;;18.13;;
26181;SDS011;13927;51.534;11.866;2023-01-23T01:08:17;29.10;;;17.88;;
26181;SDS011;13927;51.534;11.866;2023-01-23T01:10:43;30.92;;;17.75;;
26181;SDS011;13927;51.534;11.866;2023-01-23T01:13:09;30.30;;;18.52;;
26181;SDS011;13927;51.534;11.866;2023-01-23T01:15:35;29.13;;;19.13;;
26181;SDS011;13927;51.534;11.866;2023-01-23T01:18:02;31.52;;;19.08;;
26181;SDS011;13927;51.534;11.866;2023-01-23T01:20:29;33.05;;;18.67;;
26181;SDS011;13927;51.534;11.866;2023-01-23T01:22:56;30.55;;;17.50;;
26181;SDS011;13927;51.534;11.866;2023-01-23T01:25:22;29.95;;;18.25;;
26181;SDS011;13927;51.534;11.866;2023-01-23T01:27:48;29.83;;;18.65;;
26181;SDS011;13927;51.534;11.866;2023-01-23T01:30:15;32.70;;;20.40;;
26181;SDS011;13927;51.534;11.866;2023-01-23T01:32:45;28.63;;;18.08;;
26181;SDS011;13927;51.534;11.866;2023-01-23T01:35:11;32.10;;;17.35;;
26181;SDS011;13927;51.534;11.866;2023-01-23T01:37:38;29.50;;;18.20;;
26181;SDS011;13927;51.534;11.866;2023-01-23T01:40:05;32.67;;;18.65;;
26181;SDS011;13927;51.534;11.866;2023-01-23T01:42:42;30.33;;;18.58;;
26181;SDS011;13927;51.534;11.866;2023-01-23T01:46:03;30.42;;;18.25;;
26181;SDS011;13927;51.534;11.866;2023-01-23T01:51:40;33.80;;;18.20;;
26181;SDS011;13927;51.534;11.866;2023-01-23T01:57:26;30.17;;;18.48;;
26181;SDS011;13927;51.534;11.866;2023-01-23T02:00:03;29.65;;;17.45;;
26181;SDS011;13927;51.534;11.866;2023-01-23T02:05:05;31.45;;;18.15;;
26181;SDS011;13927;51.534;11.866;2023-01-23T02:07:42;31.08;;;18.30;;
26181;SDS011;13927;51.534;11.866;2023-01-23T02:10:13;30.33;;;17.65;;
26181;SDS011;13927;51.534;11.866;2023-01-23T02:12:43;31.38;;;17.75;;
26181;SDS011;13927;51.534;11.866;2023-01-23T02:15:12;31.45;;;18.33;;
26181;SDS011;13927;51.534;11.866;2023-01-23T02:17:37;32.47;;;20.05;;
26181;SDS011;13927;51.534;11.866;2023-01-23T02:20:10;31.67;;;18.45;;
26181;SDS011;13927;51.534;11.866;2023-01-23T02:25:25;32.42;;;18.73;;
26181;SDS011;13927;51.534;11.866;2023-01-23T02:28:08;31.30;;;18.10;;
26181;SDS011;13927;51.534;11.866;2023-01-23T02:30:43;33.15;;;19.73;;
26181;SDS011;13927;51.534;11.866;2023-01-23T02:35:46;31.45;;;18.65;;
26181;SDS011;13927;51.534;11.866;2023-01-23T02:38:12;31.10;;;18.25;;
26181;SDS011;13927;51.534;11.866;2023-01-23T02:40:39;33.30;;;18.75;;
26181;SDS011;13927;51.534;11.866;2023-01-23T02:43:08;31.50;;;18.70;;
26181;SDS011;13927;51.534;11.866;2023-01-23T02:45:40;33.00;;;18.40;;
26181;SDS011;13927;51.534;11.866;2023-01-23T02:48:06;31.13;;;18.70;;
26181;SDS011;13927;51.534;11.866;2023-01-23T02:50:32;32.65;;;19.58;;
26181;SDS011;13927;51.534;11.866;2023-01-23T02:53:02;32.03;;;19.13;;
26181;SDS011;13927;51.534;11.866;2023-01-23T02:55:27;33.92;;;18.55;;
26181;SDS011;13927;51.534;11.866;2023-01-23T02:58:00;32.92;;;19.75;;
26181;SDS011;13927;51.534;11.866;2023-01-23T03:00:45;32.70;;;18.80;;
26181;SDS011;13927;51.534;11.866;2023-01-23T03:03:12;32.88;;;19.05;;
26181;SDS011;13927;51.534;11.866;2023-01-23T03:05:39;30.67;;;18.13;;
26181;SDS011;13927;51.534;11.866;2023-01-23T03:08:04;32.78;;;18.30;;
26181;SDS011;13927;51.534;11.866;2023-01-23T03:10:30;31.40;;;19.55;;
26181;SDS011;13927;51.534;11.866;2023-01-23T03:12:56;30.63;;;18.27;;
26181;SDS011;13927;51.534;11.866;2023-01-23T03:15:49;30.80;;;18.20;;
26181;SDS011;13927;51.534;11.866;2023-01-23T03:18:17;31.83;;;18.35;;
26181;SDS011;13927;51.534;11.866;2023-01-23T03:20:43;31.92;;;19.27;;
26181;SDS011;13927;51.534;11.866;2023-01-23T03:23:09;34.72;;;19.52;;
26181;SDS011;13927;51.534;11.866;2023-01-23T03:25:37;34.40;;;19.30;;
26181;SDS011;13927;51.534;11.866;2023-01-23T03:28:22;33.25;;;19.60;;
26181;SDS011;13927;51.534;11.866;2023-01-23T03:31:11;33.58;;;19.27;;
26181;SDS011;13927;51.534;11.866;2023-01-23T03:33:38;29.65;;;17.27;;
26181;SDS011;13927;51.534;11.866;2023-01-23T03:36:07;30.45;;;18.52;;
26181;SDS011;13927;51.534;11.866;2023-01-23T03:38:37;31.27;;;18.77;;
26181;SDS011;13927;51.534;11.866;2023-01-23T03:41:05;33.20;;;18.52;;
26181;SDS011;13927;51.534;11.866;2023-01-23T03:43:49;32.90;;;19.55;;
26181;SDS011;13927;51.534;11.866;2023-01-23T03:46:15;34.97;;;19.48;;
26181;SDS011;13927;51.534;11.866;2023-01-23T03:48:41;35.17;;;19.02;;
26181;SDS011;13927;51.534;11.866;2023-01-23T03:51:06;33.30;;;20.05;;
26181;SDS011;13927;51.534;11.866;2023-01-23T03:53:32;35.78;;;19.67;;
26181;SDS011;13927;51.534;11.866;2023-01-23T03:55:58;31.98;;;19.00;;
26181;SDS011;13927;51.534;11.866;2023-01-23T03:58:23;33.65;;;19.27;;
26181;SDS011;13927;51.534;11.866;2023-01-23T04:00:50;35.58;;;19.45;;
26181;SDS011;13927;51.534;11.866;2023-01-23T04:03:16;36.85;;;20.63;;
26181;SDS011;13927;51.534;11.866;2023-01-23T04:05:42;34.55;;;19.63;;
26181;SDS011;13927;51.534;11.866;2023-01-23T04:08:07;34.38;;;19.83;;
26181;SDS011;13927;51.534;11.866;2023-01-23T04:10:33;34.35;;;20.63;;
26181;SDS011;13927;51.534;11.866;2023-01-23T04:13:02;35.67;;;19.65;;
26181;SDS011;13927;51.534;11.866;2023-01-23T04:15:27;36.15;;;19.95;;
26181;SDS011;13927;51.534;11.866;2023-01-23T04:17:53;38.65;;;20.13;;
26181;SDS011;13927;51.534;11.866;2023-01-23T04:20:19;33.90;;;19.92;;
26181;SDS011;13927;51.534;11.866;2023-01-23T04:22:44;37.60;;;21.42;;
26181;SDS011;13927;51.534;11.866;2023-01-23T04:25:11;36.20;;;20.30;;
26181;SDS011;13927;51.534;11.866;2023-01-23T04:27:37;41.15;;;20.95;;
26181;SDS011;13927;51.534;11.866;2023-01-23T04:30:03;33.95;;;19.58;;
26181;SDS011;13927;51.534;11.866;2023-01-23T04:32:28;35.78;;;19.77;;
26181;SDS011;13927;51.534;11.866;2023-01-23T04:34:54;40.72;;;20.30;;
26181;SDS011;13927;51.534;11.866;2023-01-23T04:37:20;40.88;;;21.33;;
26181;SDS011;13927;51.534;11.866;2023-01-23T04:39:46;41.17;;;21.30;;
26181;SDS011;13927;51.534;11.866;2023-01-23T04:42:12;41.70;;;21.48;;
26181;SDS011;13927;51.534;11.866;2023-01-23T04:44:38;41.13;;;21.40;;
26181;SDS011;13927;51.534;11.866;2023-01-23T04:47:03;43.20;;;21.00;;
26181;SDS011;13927;51.534;11.866;2023-01-23T04:49:29;41.10;;;20.17;;
26181;SDS011;13927;51.534;11.866;2023-01-23T04:51:55;38.50;;;20.10;;
26181;SDS011;13927;51.534;11.866;2023-01-23T04:54:20;40.25;;;21.67;;
26181;SDS011;13927;51.534;11.866;2023-01-23T04:56:46;37.45;;;21.30;;
26181;SDS011;13927;51.534;11.866;2023-01-23T04:59:13;45.42;;;21.33;;
26181;SDS011;13927;51.534;11.866;2023-01-23T05:01:40;44.85;;;22.90;;
26181;SDS011;13927;51.534;11.866;2023-01-23T05:04:06;43.00;;;22.73;;
26181;SDS011;13927;51.534;11.866;2023-01-23T05:06:32;43.08;;;22.80;;
26181;SDS011;13927;51.534;11.866;2023-01-23T05:08:57;40.80;;;22.05;;
26181;SDS011;13927;51.534;11.866;2023-01-23T05:11:23;40.15;;;21.98;;
26181;SDS011;13927;51.534;11.866;2023-01-23T05:13:49;47.60;;;22.77;;
26181;SDS011;13927;51.534;11.866;2023-01-23T05:16:15;47.50;;;21.80;;
26181;SDS011;13927;51.534;11.866;2023-01-23T05:18:40;47.83;;;22.48;;
26181;SDS011;13927;51.534;11.866;2023-01-23T05:21:06;41.10;;;21.83;;
26181;SDS011;13927;51.534;11.866;2023-01-23T05:23:32;49.17;;;23.60;;
26181;SDS011;13927;51.534;11.866;2023-01-23T05:25:58;48.60;;;24.23;;
26181;SDS011;13927;51.534;11.866;2023-01-23T05:28:23;48.97;;;23.40;;
26181;SDS011;13927;51.534;11.866;2023-01-23T05:30:49;45.47;;;22.35;;
26181;SDS011;13927;51.534;11.866;2023-01-23T05:33:15;46.58;;;23.17;;
26181;SDS011;13927;51.534;11.866;2023-01-23T05:35:41;50.10;;;24.00;;
26181;SDS011;13927;51.534;11.866;2023-01-23T05:38:08;51.97;;;23.27;;
26181;SDS011;13927;51.534;11.866;2023-01-23T05:40:36;45.22;;;24.25;;
26181;SDS011;13927;51.534;11.866;2023-01-23T05:43:02;45.70;;;22.65;;
26181;SDS011;13927;51.534;11.866;2023-01-23T05:45:27;48.40;;;22.13;;
26181;SDS011;13927;51.534;11.866;2023-01-23T05:47:53;45.72;;;22.95;;
26181;SDS011;13927;51.534;11.866;2023-01-23T05:50:20;43.03;;;21.95;;
26181;SDS011;13927;51.534;11.866;2023-01-23T05:52:47;45.05;;;22.85;;
26181;SDS011;13927;51.534;11.866;2023-01-23T05:55:13;49.88;;;23.33;;
26181;SDS011;13927;51.534;11.866;2023-01-23T05:57:39;51.88;;;22.83;;
26181;SDS011;13927;51.534;11.866;2023-01-23T06:00:05;49.90;;;23.20;;
26181;SDS011;13927;51.534;11.866;2023-01-23T06:02:34;50.15;;;23.42;;
26181;SDS011;13927;51.534;11.866;2023-01-23T06:05:00;50.42;;;23.65;;
26181;SDS011;13927;51.534;11.866;2023-01-23T06:07:26;50.10;;;21.92;;
26181;SDS011;13927;51.534;11.866;2023-01-23T06:09:51;60.78;;;23.83;;
26181;SDS011;13927;51.534;11.866;2023-01-23T06:12:17;51.90;;;22.30;;
26181;SDS011;13927;51.534;11.866;2023-01-23T06:14:43;57.13;;;23.67;;
26181;SDS011;13927;51.534;11.866;2023-01-23T06:17:09;47.10;;;23.13;;
26181;SDS011;13927;51.534;11.866;2023-01-23T06:19:36;51.90;;;22.20;;
26181;SDS011;13927;51.534;11.866;2023-01-23T06:22:02;54.60;;;24.23;;
26181;SDS011;13927;51.534;11.866;2023-01-23T06:24:28;58.88;;;24.55;;
26181;SDS011;13927;51.534;11.866;2023-01-23T06:26:54;53.88;;;22.90;;
26181;SDS011;13927;51.534;11.866;2023-01-23T06:29:19;54.20;;;24.58;;
26181;SDS011;13927;51.534;11.866;2023-01-23T06:31:45;57.42;;;25.00;;
26181;SDS011;13927;51.534;11.866;2023-01-23T06:34:12;57.65;;;23.63;;
26181;SDS011;13927;51.534;11.866;2023-01-23T06:36:39;50.22;;;23.60;;
26181;SDS011;13927;51.534;11.866;2023-01-23T06:39:05;58.55;;;23.92;;
26181;SDS011;13927;51.534;11.866;2023-01-23T06:41:31;59.05;;;25.35;;
26181;SDS011;13927;51.534;11.866;2023-01-23T06:43:57;51.33;;;23.88;;
26181;SDS011;13927;51.534;11.866;2023-01-23T06:46:22;55.08;;;23.33;;
26181;SDS011;13927;51.534;11.866;2023-01-23T06:48:48;56.85;;;23.05;;
26181;SDS011;13927;51.534;11.866;2023-01-23T06:51:14;65.15;;;23.13;;
26181;SDS011;13927;51.534;11.866;2023-01-23T06:53:40;55.40;;;21.58;;
26181;SDS011;13927;51.534;11.866;2023-01-23T06:56:06;52.30;;;23.33;;
26181;SDS011;13927;51.534;11.866;2023-01-23T06:58:32;61.17;;;23.80;;
26181;SDS011;13927;51.534;11.866;2023-01-23T07:00:59;55.50;;;22.30;;
26181;SDS011;13927;51.534;11.866;2023-01-23T07:03:32;52.15;;;22.13;;
26181;SDS011;13927;51.534;11.866;2023-01-23T07:06:00;50.97;;;21.80;;
26181;SDS011;13927;51.534;11.866;2023-01-23T07:08:31;54.40;;;22.55;;
26181;SDS011;13927;51.534;11.866;2023-01-23T07:10:58;53.33;;;21.25;;
26181;SDS011;13927;51.534;11.866;2023-01-23T07:13:24;50.40;;;21.13;;
26181;SDS011;13927;51.534;11.866;2023-01-23T07:15:50;52.15;;;22.25;;
26181;SDS011;13927;51.534;11.866;2023-01-23T07:18:16;53.42;;;23.88;;
26181;SDS011;13927;51.534;11.866;2023-01-23T07:20:44;52.30;;;24.02;;
26181;SDS011;13927;51.534;11.866;2023-01-23T07:23:11;53.40;;;22.77;;
26181;SDS011;13927;51.534;11.866;2023-01-23T07:25:37;48.97;;;25.67;;
26181;SDS011;13927;51.534;11.866;2023-01-23T07:28:03;52.53;;;25.83;;
26181;SDS011;13927;51.534;11.866;2023-01-23T07:30:30;59.58;;;28.58;;
26181;SDS011;13927;51.534;11.866;2023-01-23T07:32:57;57.65;;;27.02;;
26181;SDS011;13927;51.534;11.866;2023-01-23T07:35:23;49.00;;;23.45;;
26181;SDS011;13927;51.534;11.866;2023-01-23T07:37:50;50.67;;;23.40;;
26181;SDS011;13927;51.534;11.866;2023-01-23T07:40:16;53.63;;;26.40;;
26181;SDS011;13927;51.534;11.866;2023-01-23T07:42:42;50.20;;;25.83;;
26181;SDS011;13927;51.534;11.866;2023-01-23T07:45:09;66.15;;;32.88;;
26181;SDS011;13927;51.534;11.866;2023-01-23T07:47:35;71.75;;;36.47;;
26181;SDS011;13927;51.534;11.866;2023-01-23T07:50:04;69.07;;;30.83;;
26181;SDS011;13927;51.534;11.866;2023-01-23T07:52:31;62.88;;;28.70;;
26181;SDS011;13927;51.534;11.866;2023-01-23T07:54:57;67.55;;;31.77;;
26181;SDS011;13927;51.534;11.866;2023-01-23T07:57:22;57.72;;;28.95;;
26181;SDS011;13927;51.534;11.866;2023-01-23T07:59:48;54.85;;;28.40;;
26181;SDS011;13927;51.534;11.866;2023-01-23T08:02:14;58.08;;;27.35;;
26181;SDS011;13927;51.534;11.866;2023-01-23T08:04:39;42.50;;;22.05;;
26181;SDS011;13927;51.534;11.866;2023-01-23T08:07:05;49.30;;;22.20;;
26181;SDS011;13927;51.534;11.866;2023-01-23T08:09:31;55.38;;;25.55;;
26181;SDS011;13927;51.534;11.866;2023-01-23T08:11:57;50.13;;;26.58;;
26181;SDS011;13927;51.534;11.866;2023-01-23T08:14:22;50.90;;;24.38;;
26181;SDS011;13927;51.534;11.866;2023-01-23T08:16:48;50.45;;;23.20;;
26181;SDS011;13927;51.534;11.866;2023-01-23T08:19:15;43.08;;;24.50;;
26181;SDS011;13927;51.534;11.866;2023-01-23T08:21:43;42.17;;;22.25;;
26181;SDS011;13927;51.534;11.866;2023-01-23T08:24:12;46.78;;;25.23;;
26181;SDS011;13927;51.534;11.866;2023-01-23T08:26:39;44.72;;;22.63;;
26181;SDS011;13927;51.534;11.866;2023-01-23T08:29:06;47.58;;;22.10;;
26181;SDS011;13927;51.534;11.866;2023-01-23T08:31:32;45.83;;;21.65;;
26181;SDS011;13927;51.534;11.866;2023-01-23T08:33:57;39.55;;;22.90;;
26181;SDS011;13927;51.534;11.866;2023-01-23T08:36:23;49.95;;;23.02;;
26181;SDS011;13927;51.534;11.866;2023-01-23T08:38:49;42.72;;;22.42;;
26181;SDS011;13927;51.534;11.866;2023-01-23T08:41:14;43.20;;;22.50;;
26181;SDS011;13927;51.534;11.866;2023-01-23T08:43:40;44.75;;;20.45;;
26181;SDS011;13927;51.534;11.866;2023-01-23T08:46:07;41.28;;;21.58;;
26181;SDS011;13927;51.534;11.866;2023-01-23T08:48:34;40.88;;;21.52;;
26181;SDS011;13927;51.534;11.866;2023-01-23T08:51:04;43.65;;;21.33;;
26181;SDS011;13927;51.534;11.866;2023-01-23T08:53:32;42.97;;;21.02;;
26181;SDS011;13927;51.534;11.866;2023-01-23T08:55:59;36.78;;;20.52;;
26181;SDS011;13927;51.534;11.866;2023-01-23T08:58:27;38.00;;;20.77;;
26181;SDS011;13927;51.534;11.866;2023-01-23T09:00:53;42.38;;;21.17;;
26181;SDS011;13927;51.534;11.866;2023-01-23T09:03:19;40.72;;;20.90;;
26181;SDS011;13927;51.534;11.866;2023-01-23T09:05:45;38.20;;;21.00;;
26181;SDS011;13927;51.534;11.866;2023-01-23T09:08:10;46.55;;;27.20;;
26181;SDS011;13927;51.534;11.866;2023-01-23T09:10:36;41.13;;;21.60;;
26181;SDS011;13927;51.534;11.866;2023-01-23T09:13:02;40.15;;;22.08;;
26181;SDS011;13927;51.534;11.866;2023-01-23T09:15:28;38.15;;;20.65;;
26181;SDS011;13927;51.534;11.866;2023-01-23T09:17:55;39.42;;;20.42;;
26181;SDS011;13927;51.534;11.866;2023-01-23T09:20:20;40.47;;;21.70;;
26181;SDS011;13927;51.534;11.866;2023-01-23T09:22:46;40.65;;;22.23;;
26181;SDS011;13927;51.534;11.866;2023-01-23T09:25:12;37.00;;;20.77;;
26181;SDS011;13927;51.534;11.866;2023-01-23T09:27:38;35.67;;;20.45;;
26181;SDS011;13927;51.534;11.866;2023-01-23T09:30:04;36.92;;;21.63;;
26181;SDS011;13927;51.534;11.866;2023-01-23T09:32:32;37.42;;;20.80;;
26181;SDS011;13927;51.534;11.866;2023-01-23T09:34:58;36.90;;;21.17;;
26181;SDS011;13927;51.534;11.866;2023-01-23T09:37:24;37.90;;;21.08;;
26181;SDS011;13927;51.534;11.866;2023-01-23T09:39:49;55.03;;;30.73;;
26181;SDS011;13927;51.534;11.866;2023-01-23T09:44:44;37.28;;;19.67;;
26181;SDS011;13927;51.534;11.866;2023-01-23T09:50:02;39.65;;;20.55;;
26181;SDS011;13927;51.534;11.866;2023-01-23T09:52:40;38.13;;;20.50;;
26181;SDS011;13927;51.534;11.866;2023-01-23T09:55:17;35.90;;;21.30;;
26181;SDS011;13927;51.534;11.866;2023-01-23T09:57:57;37.20;;;21.02;;
26181;SDS011;13927;51.534;11.866;2023-01-23T10:02:59;37.63;;;21.25;;
26181;SDS011;13927;51.534;11.866;2023-01-23T10:08:20;48.17;;;25.77;;
26181;SDS011;13927;51.534;11.866;2023-01-23T10:16:45;41.88;;;21.77;;
26181;SDS011;13927;51.534;11.866;2023-01-23T10:19:39;41.45;;;23.20;;
26181;SDS011;13927;51.534;11.866;2023-01-23T10:24:58;38.58;;;20.95;;
26181;SDS011;13927;51.534;11.866;2023-01-23T10:27:44;43.13;;;21.33;;
26181;SDS011;13927;51.534;11.866;2023-01-23T10:30:20;39.95;;;21.55;;
26181;SDS011;13927;51.534;11.866;2023-01-23T10:32:58;42.58;;;22.98;;
26181;SDS011;13927;51.534;11.866;2023-01-23T10:35:35;35.30;;;20.73;;
26181;SDS011;13927;51.534;11.866;2023-01-23T10:41:09;42.50;;;22.85;;
26181;SDS011;13927;51.534;11.866;2023-01-23T10:43:42;46.03;;;21.95;;
26181;SDS011;13927;51.534;11.866;2023-01-23T10:48:48;46.03;;;23.23;;
26181;SDS011;13927;51.534;11.866;2023-01-23T10:54:13;40.63;;;22.95;;
26181;SDS011;13927;51.534;11.866;2023-01-23T10:56:57;37.85;;;21.25;;
26181;SDS011;13927;51.534;11.866;2023-01-23T11:04:39;44.13;;;25.25;;
26181;SDS011;13927;51.534;11.866;2023-01-23T11:07:11;45.85;;;25.08;;
26181;SDS011;13927;51.534;11.866;2023-01-23T11:09:44;44.67;;;23.40;;
26181;SDS011;13927;51.534;11.866;2023-01-23T11:12:20;43.95;;;22.70;;
26181;SDS011;13927;51.534;11.866;2023-01-23T11:18:04;44.50;;;23.45;;
26181;SDS011;13927;51.534;11.866;2023-01-23T11:20:56;47.78;;;25.02;;
26181;SDS011;13927;51.534;11.866;2023-01-23T11:23:21;47.33;;;24.88;;
26181;SDS011;13927;51.534;11.866;2023-01-23T11:25:49;50.17;;;25.17;;
26181;SDS011;13927;51.534;11.866;2023-01-23T11:31:14;45.75;;;25.38;;
26181;SDS011;13927;51.534;11.866;2023-01-23T11:34:04;51.40;;;25.75;;
26181;SDS011;13927;51.534;11.866;2023-01-23T11:36:47;48.30;;;24.92;;
26181;SDS011;13927;51.534;11.866;2023-01-23T11:42:06;48.42;;;25.30;;
26181;SDS011;13927;51.534;11.866;2023-01-23T11:44:37;48.10;;;24.23;;
26181;SDS011;13927;51.534;11.866;2023-01-23T11:53:20;45.42;;;23.02;;
26181;SDS011;13927;51.534;11.866;2023-01-23T12:05:37;44.63;;;22.98;;
26181;SDS011;13927;51.534;11.866;2023-01-23T12:11:12;43.25;;;22.38;;
26181;SDS011;13927;51.534;11.866;2023-01-23T12:16:33;46.15;;;22.95;;
26181;SDS011;13927;51.534;11.866;2023-01-23T12:19:29;42.40;;;23.00;;
26181;SDS011;13927;51.534;11.866;2023-01-23T12:28:00;43.08;;;23.98;;
26181;SDS011;13927;51.534;11.866;2023-01-23T12:39:53;42.80;;;23.60;;
26181;SDS011;13927;51.534;11.866;2023-01-23T12:42:35;47.75;;;24.52;;
26181;SDS011;13927;51.534;11.866;2023-01-23T12:47:51;45.53;;;22.75;;
26181;SDS011;13927;51.534;11.866;2023-01-23T12:50:35;46.38;;;23.50;;
26181;SDS011;13927;51.534;11.866;2023-01-23T12:53:14;45.88;;;24.15;;
26181;SDS011;13927;51.534;11.866;2023-01-23T12:58:28;50.95;;;25.90;;
26181;SDS011;13927;51.534;11.866;2023-01-23T13:01:01;55.05;;;27.10;;
26181;SDS011;13927;51.534;11.866;2023-01-23T13:03:54;52.60;;;25.35;;
26181;SDS011;13927;51.534;11.866;2023-01-23T13:12:52;60.22;;;29.17;;
26181;SDS011;13927;51.534;11.866;2023-01-23T13:15:20;60.80;;;31.60;;
26181;SDS011;13927;51.534;11.866;2023-01-23T13:17:59;61.65;;;31.45;;
26181;SDS011;13927;51.534;11.866;2023-01-23T13:20:30;54.22;;;29.08;;
26181;SDS011;13927;51.534;11.866;2023-01-23T13:23:20;61.78;;;30.38;;
26181;SDS011;13927;51.534;11.866;2023-01-23T13:28:43;60.25;;;30.35;;
26181;SDS011;13927;51.534;11.866;2023-01-23T13:31:32;54.88;;;27.48;;
26181;SDS011;13927;51.534;11.866;2023-01-23T13:36:42;55.70;;;29.23;;
26181;SDS011;13927;51.534;11.866;2023-01-23T13:45:26;54.90;;;26.85;;
26181;SDS011;13927;51.534;11.866;2023-01-23T13:51:18;57.53;;;28.27;;
26181;SDS011;13927;51.534;11.866;2023-01-23T13:53:47;55.50;;;28.60;;
26181;SDS011;13927;51.534;11.866;2023-01-23T13:56:35;59.92;;;30.52;;
26181;SDS011;13927;51.534;11.866;2023-01-23T13:59:24;67.68;;;30.08;;
26181;SDS011;13927;51.534;11.866;2023-01-23T14:02:03;61.47;;;29.70;;
26181;SDS011;13927;51.534;11.866;2023-01-23T14:05:25;60.85;;;30.38;;
26181;SDS011;13927;51.534;11.866;2023-01-23T14:08:00;59.50;;;28.85;;
26181;SDS011;13927;51.534;11.866;2023-01-23T14:10:33;65.10;;;32.50;;
26181;SDS011;13927;51.534;11.866;2023-01-23T14:13:11;65.53;;;30.48;;
26181;SDS011;13927;51.534;11.866;2023-01-23T14:15:40;64.53;;;32.13;;
26181;SDS011;13927;51.534;11.866;2023-01-23T14:23:54;67.93;;;32.45;;
26181;SDS011;13927;51.534;11.866;2023-01-23T14:26:29;66.38;;;33.97;;
26181;SDS011;13927;51.534;11.866;2023-01-23T14:31:45;69.45;;;32.78;;
26181;SDS011;13927;51.534;11.866;2023-01-23T14:34:15;63.67;;;31.42;;
26181;SDS011;13927;51.534;11.866;2023-01-23T14:36:48;65.93;;;31.45;;
26181;SDS011;13927;51.534;11.866;2023-01-23T14:39:33;61.47;;;29.33;;
26181;SDS011;13927;51.534;11.866;2023-01-23T14:41:59;56.08;;;28.38;;
26181;SDS011;13927;51.534;11.866;2023-01-23T14:44:29;59.55;;;28.35;;
26181;SDS011;13927;51.534;11.866;2023-01-23T14:47:09;60.33;;;29.55;;
26181;SDS011;13927;51.534;11.866;2023-01-23T14:50:18;63.25;;;29.00;;
26181;SDS011;13927;51.534;11.866;2023-01-23T14:53:01;60.53;;;27.60;;
26181;SDS011;13927;51.534;11.866;2023-01-23T14:55:38;56.47;;;29.38;;
26181;SDS011;13927;51.534;11.866;2023-01-23T14:58:06;58.85;;;27.52;;
26181;SDS011;13927;51.534;11.866;2023-01-23T15:00:37;60.40;;;28.77;;
26181;SDS011;13927;51.534;11.866;2023-01-23T15:03:05;56.13;;;27.70;;
26181;SDS011;13927;51.534;11.866;2023-01-23T15:05:36;60.40;;;28.95;;
26181;SDS011;13927;51.534;11.866;2023-01-23T15:08:05;57.67;;;28.67;;
26181;SDS011;13927;51.534;11.866;2023-01-23T15:10:46;53.88;;;27.77;;
26181;SDS011;13927;51.534;11.866;2023-01-23T15:15:54;59.53;;;28.63;;
26181;SDS011;13927;51.534;11.866;2023-01-23T15:18:26;56.03;;;26.90;;
26181;SDS011;13927;51.534;11.866;2023-01-23T15:21:04;55.38;;;26.23;;
26181;SDS011;13927;51.534;11.866;2023-01-23T15:23:32;52.35;;;27.00;;
26181;SDS011;13927;51.534;11.866;2023-01-23T15:29:00;49.45;;;25.48;;
26181;SDS011;13927;51.534;11.866;2023-01-23T15:31:33;53.92;;;25.63;;
26181;SDS011;13927;51.534;11.866;2023-01-23T15:34:49;52.35;;;26.08;;
26181;SDS011;13927;51.534;11.866;2023-01-23T15:42:30;53.30;;;26.65;;
26181;SDS011;13927;51.534;11.866;2023-01-23T15:44:58;62.70;;;32.58;;
26181;SDS011;13927;51.534;11.866;2023-01-23T15:47:27;49.47;;;24.77;;
26181;SDS011;13927;51.534;11.866;2023-01-23T15:49:56;55.88;;;26.90;;
26181;SDS011;13927;51.534;11.866;2023-01-23T15:52:28;51.22;;;27.40;;
26181;SDS011;13927;51.534;11.866;2023-01-23T15:54:58;49.90;;;26.88;;
26181;SDS011;13927;51.534;11.866;2023-01-23T15:57:27;49.08;;;24.77;;
26181;SDS011;13927;51.534;11.866;2023-01-23T15:59:53;51.38;;;25.38;;
26181;SDS011;13927;51.534;11.866;2023-01-23T16:02:20;51.60;;;25.33;;
26181;SDS011;13927;51.534;11.866;2023-01-23T16:04:48;51.45;;;25.83;;
26181;SDS011;13927;51.534;11.866;2023-01-23T16:07:21;51.95;;;26.48;;
26181;SDS011;13927;51.534;11.866;2023-01-23T16:09:50;52.58;;;27.40;;
26181;SDS011;13927;51.534;11.866;2023-01-23T16:12:19;50.10;;;25.73;;
26181;SDS011;13927;51.534;11.866;2023-01-23T16:14:48;51.53;;;26.23;;
26181;SDS011;13927;51.534;11.866;2023-01-23T16:17:14;55.97;;;27.38;;
26181;SDS011;13927;51.534;11.866;2023-01-23T16:19:40;50.08;;;26.52;;
26181;SDS011;13927;51.534;11.866;2023-01-23T16:22:08;48.45;;;26.05;;
26181;SDS011;13927;51.534;11.866;2023-01-23T16:24:38;44.22;;;24.65;;
26181;SDS011;13927;51.534;11.866;2023-01-23T16:27:05;51.55;;;28.75;;
26181;SDS011;13927;51.534;11.866;2023-01-23T16:29:39;44.33;;;24.13;;
26181;SDS011;13927;51.534;11.866;2023-01-23T16:32:07;49.30;;;26.00;;
26181;SDS011;13927;51.534;11.866;2023-01-23T16:34:33;48.40;;;25.20;;
26181;SDS011;13927;51.534;11.866;2023-01-23T16:36:59;46.30;;;24.90;;
26181;SDS011;13927;51.534;11.866;2023-01-23T16:39:28;43.97;;;24.27;;
26181;SDS011;13927;51.534;11.866;2023-01-23T16:41:56;42.33;;;23.33;;
26181;SDS011;13927;51.534;11.866;2023-01-23T16:44:22;39.38;;;23.52;;